Carolina Forest, South Carolina
Current Conditions -  °F | °C
As of 11:15 PM on Sunday 21 Dec 2014 (Local Time) from KMYR Reporting Station
Overcast Overcast  
Wind Chill: 40°   Ceiling: 1400
Heat Index: 45°   Visibility: 7mi
Dew Point: 41°   Wind: 9mph
Humidity: 87%   Direction: 350°N
Pressure: 30.15"   Gusts: NA
Location:  33.7109°N, 78.9964°W
Report Text: KMYR 220415Z AUTO 35008KT 7SM SCT009 BKN014 OVC060 07/05 A3015 RMK AO1 P0006
Loading
Personal Weather Stations






























Interactive Weather Map New forecast layout! Learn more

10-Day Weather Forecast

Advertisements
Track Severe Weather on mobile